Time;durP1;ratioP1;P1;durP2;ratioP2;P2;SDS_P1;SDS_P2;PMS_P1;PMS_P2;Temp;Humidity;BMP_temperature;BMP_pressure;BME280_temperature;BME280_humidity;BME280_pressure;Samples;Min_cycle;Max_cycle;Signal;HPM_P1;HPM_P2
2023/07/04 00:00:33;;;;;;;11.15;2.20;;;16.70;99.90;;;;;;15471020;23;20474;-36
2023/07/04 00:06:36;;;;;;;9.65;2.65;;;16.40;99.90;;;;;;15495514;23;20025;-37
2023/07/04 00:12:38;;;;;;;9.70;3.00;;;16.30;99.90;;;;;;15488088;22;20023;-37
2023/07/04 00:18:42;;;;;;;11.25;2.50;;;16.10;99.90;;;;;;15490587;23;20107;-36
2023/07/04 00:24:44;;;;;;;11.52;2.72;;;15.80;99.90;;;;;;15488400;22;20051;-36
2023/07/04 00:30:46;;;;;;;8.60;2.72;;;15.60;99.90;;;;;;15493447;23;20032;-36
2023/07/04 00:36:49;;;;;;;9.05;2.38;;;15.40;99.90;;;;;;15496528;23;20086;-36
2023/07/04 00:42:55;;;;;;;10.85;2.38;;;15.30;99.90;;;;;;15494052;23;20031;-36
2023/07/04 00:49:00;;;;;;;5.93;2.10;;;15.00;99.90;;;;;;15464598;23;20016;-36
2023/07/04 00:55:08;;;;;;;6.88;1.70;;;14.90;99.90;;;;;;15463722;23;20031;-37
2023/07/04 01:01:10;;;;;;;5.30;1.50;;;14.70;99.90;;;;;;15471915;22;20026;-36
2023/07/04 01:07:51;;;;;;;3.53;1.25;;;14.00;99.90;;;;;;15472751;23;20043;-37
2023/07/04 01:13:53;;;;;;;6.40;1.30;;;13.90;99.90;;;;;;15489580;23;20025;-36
2023/07/04 01:19:57;;;;;;;4.00;1.25;;;14.00;99.90;;;;;;15471300;23;20024;-36
2023/07/04 01:26:14;;;;;;;4.38;1.00;;;14.00;99.90;;;;;;15490196;22;20032;-36
2023/07/04 01:32:16;;;;;;;4.20;1.15;;;14.00;99.90;;;;;;15495361;22;20474;-36
2023/07/04 01:38:18;;;;;;;4.35;0.85;;;14.20;99.90;;;;;;15497196;22;20466;-36
2023/07/04 01:44:24;;;;;;;6.03;1.00;;;14.20;99.90;;;;;;15462830;23;20078;-36
2023/07/04 01:50:26;;;;;;;3.80;1.00;;;14.10;99.90;;;;;;15491920;23;20103;-37
2023/07/04 01:56:29;;;;;;;4.10;1.00;;;14.00;99.90;;;;;;15495109;23;20402;-36
2023/07/04 02:02:31;;;;;;;4.60;0.98;;;14.00;99.90;;;;;;15493939;22;20024;-36
2023/07/04 02:08:33;;;;;;;6.88;0.93;;;14.10;99.90;;;;;;15485245;22;20027;-37
2023/07/04 02:14:36;;;;;;;4.38;0.85;;;14.10;99.90;;;;;;15500206;22;20032;-36
2023/07/04 02:20:38;;;;;;;5.30;1.10;;;14.10;99.90;;;;;;15494378;23;21336;-36
2023/07/04 02:26:40;;;;;;;4.35;1.15;;;14.10;99.90;;;;;;15496623;23;20020;-36
2023/07/04 02:32:44;;;;;;;5.00;1.00;;;14.00;99.90;;;;;;15467881;23;20028;-36
2023/07/04 02:38:46;;;;;;;4.35;0.90;;;14.00;99.90;;;;;;15499420;23;20039;-36
2023/07/04 02:44:48;;;;;;;2.67;1.13;;;14.10;99.90;;;;;;15497489;23;20032;-36
2023/07/04 02:50:50;;;;;;;3.70;1.08;;;14.00;99.90;;;;;;15495743;23;20028;-36
2023/07/04 02:56:52;;;;;;;6.22;1.30;;;13.80;99.90;;;;;;15493558;23;20024;-37
2023/07/04 03:02:55;;;;;;;4.75;1.05;;;13.80;99.90;;;;;;15462423;22;20043;-36
2023/07/04 03:08:57;;;;;;;4.03;1.10;;;13.60;99.90;;;;;;15488743;23;20046;-36
2023/07/04 03:14:59;;;;;;;3.40;0.95;;;13.50;99.90;;;;;;15485506;23;20035;-36
2023/07/04 03:21:01;;;;;;;3.90;1.10;;;13.40;99.90;;;;;;15474299;23;20032;-36
2023/07/04 03:27:04;;;;;;;4.53;1.02;;;13.30;99.90;;;;;;15489209;22;20239;-36
2023/07/04 03:33:06;;;;;;;3.60;1.10;;;13.20;99.90;;;;;;15491907;23;20024;-36
2023/07/04 03:39:08;;;;;;;3.92;1.10;;;13.30;99.90;;;;;;15478080;23;20031;-36
2023/07/04 03:45:10;;;;;;;4.13;1.10;;;13.30;99.90;;;;;;15487952;23;20031;-37
2023/07/04 03:51:12;;;;;;;3.80;1.10;;;13.40;99.90;;;;;;15477422;22;20027;-36
2023/07/04 03:57:14;;;;;;;5.13;1.30;;;13.40;99.90;;;;;;15490323;23;20020;-36
2023/07/04 04:03:17;;;;;;;4.00;1.00;;;13.40;99.90;;;;;;15485901;23;20458;-36
2023/07/04 04:09:20;;;;;;;3.47;0.90;;;13.60;99.90;;;;;;15495030;23;20020;-36
2023/07/04 04:15:22;;;;;;;4.03;1.08;;;13.50;99.90;;;;;;15471659;23;20016;-36
2023/07/04 04:21:24;;;;;;;4.13;1.10;;;13.40;99.90;;;;;;15498790;22;20028;-36
2023/07/04 04:27:30;;;;;;;6.53;1.30;;;13.50;99.90;;;;;;15498628;23;20031;-36
2023/07/04 04:33:33;;;;;;;8.07;1.33;;;13.60;99.90;;;;;;15474997;22;20751;-36
2023/07/04 04:39:36;;;;;;;4.63;1.25;;;13.70;99.90;;;;;;15494153;23;20020;-37
2023/07/04 04:45:38;;;;;;;13.45;2.47;;;13.80;99.90;;;;;;15498121;22;20032;-36
2023/07/04 04:51:40;;;;;;;5.55;1.38;;;13.80;99.90;;;;;;15500045;22;20039;-36
2023/07/04 04:57:42;;;;;;;5.45;1.40;;;13.80;99.90;;;;;;15470818;23;20454;-36
2023/07/04 05:03:45;;;;;;;6.65;1.40;;;13.70;99.90;;;;;;15497520;22;20024;-36
2023/07/04 05:09:47;;;;;;;3.13;1.20;;;13.80;99.90;;;;;;15466811;23;20107;-36
2023/07/04 05:15:57;;;;;;;6.05;1.40;;;14.00;99.90;;;;;;15489140;23;20340;-36
2023/07/04 05:21:59;;;;;;;4.88;1.25;;;13.90;99.90;;;;;;15497557;23;20059;-36
2023/07/04 05:28:04;;;;;;;4.22;1.38;;;13.90;99.90;;;;;;15470912;23;20020;-36
2023/07/04 05:34:06;;;;;;;3.85;1.33;;;13.80;99.90;;;;;;15500231;22;20469;-37
2023/07/04 05:40:08;;;;;;;5.55;1.27;;;13.90;99.90;;;;;;15475935;23;20024;-37
2023/07/04 05:46:12;;;;;;;5.55;1.40;;;14.00;99.90;;;;;;15497218;23;20054;-36
2023/07/04 05:52:14;;;;;;;4.95;1.88;;;14.10;99.90;;;;;;15505063;22;20543;-36
2023/07/04 05:58:17;;;;;;;6.82;1.90;;;14.30;99.90;;;;;;15480367;23;20047;-36
2023/07/04 06:04:19;;;;;;;5.00;1.90;;;14.50;99.90;;;;;;15473410;23;20025;-37
2023/07/04 06:10:23;;;;;;;8.70;2.72;;;14.60;99.90;;;;;;15508630;23;20099;-36
2023/07/04 06:16:25;;;;;;;6.82;2.28;;;14.50;99.90;;;;;;15497843;23;20032;-37
2023/07/04 06:22:27;;;;;;;7.65;2.10;;;14.60;99.90;;;;;;15505083;22;20086;-36
2023/07/04 06:28:29;;;;;;;8.48;1.80;;;14.70;99.90;;;;;;15504677;23;20114;-35
2023/07/04 06:34:32;;;;;;;11.70;2.22;;;15.00;99.90;;;;;;15501180;23;20044;-36
2023/07/04 06:40:34;;;;;;;11.82;2.40;;;15.20;99.90;;;;;;15477639;22;20027;-37
2023/07/04 06:46:36;;;;;;;7.70;2.70;;;15.10;99.90;;;;;;15498966;22;20396;-36
2023/07/04 06:52:39;;;;;;;11.75;2.65;;;14.90;99.90;;;;;;15501115;23;20078;-37
2023/07/04 06:58:45;;;;;;;9.48;3.05;;;15.00;99.90;;;;;;15500511;23;20116;-36
2023/07/04 07:04:47;;;;;;;6.20;2.45;;;15.30;99.90;;;;;;15469811;23;20028;-36
2023/07/04 07:10:59;;;;;;;6.68;1.95;;;15.60;99.90;;;;;;15474042;23;20027;-36
2023/07/04 07:17:02;;;;;;;7.90;2.10;;;15.80;99.90;;;;;;15496906;22;20076;-36
2023/07/04 07:23:06;;;;;;;9.85;2.25;;;15.80;99.90;;;;;;15500178;22;20052;-36
2023/07/04 07:29:08;;;;;;;8.50;2.38;;;15.40;99.90;;;;;;15466028;23;20048;-36
2023/07/04 07:35:11;;;;;;;6.05;1.98;;;15.50;99.90;;;;;;15487973;22;20031;-36
2023/07/04 07:41:14;;;;;;;4.97;1.80;;;15.90;99.90;;;;;;15497936;22;20463;-36
2023/07/04 07:47:16;;;;;;;9.20;2.08;;;16.10;99.90;;;;;;15495415;23;20024;-38
2023/07/04 07:53:18;;;;;;;9.18;2.13;;;16.30;99.90;;;;;;15498399;22;20017;-39
2023/07/04 07:59:21;;;;;;;7.63;2.03;;;16.30;99.90;;;;;;15470056;23;20111;-38
2023/07/04 08:05:23;;;;;;;7.50;1.93;;;16.50;99.90;;;;;;15496900;23;20111;-38
2023/07/04 08:11:26;;;;;;;11.32;2.08;;;16.40;99.90;;;;;;15499053;23;20028;-38
2023/07/04 08:17:28;;;;;;;6.70;2.05;;;16.40;99.90;;;;;;15496745;23;20022;-38
2023/07/04 08:23:30;;;;;;;6.32;1.67;;;16.50;99.90;;;;;;15471198;22;20117;-39
2023/07/04 08:29:32;;;;;;;10.02;2.05;;;16.90;99.90;;;;;;15498421;23;20023;-38
2023/07/04 08:35:34;;;;;;;8.95;2.20;;;16.60;99.90;;;;;;15488816;23;20016;-38
2023/07/04 08:41:43;;;;;;;8.68;2.10;;;17.20;99.90;;;;;;15498608;22;20498;-38
2023/07/04 08:47:46;;;;;;;9.93;2.08;;;17.10;99.90;;;;;;15455247;23;20135;-39
2023/07/04 08:53:53;;;;;;;11.40;2.22;;;16.70;99.90;;;;;;15496785;22;20130;-38
2023/07/04 09:00:22;;;;;;;8.13;2.67;;;16.60;99.90;;;;;;15496287;23;20369;-38
2023/07/04 09:07:08;;;;;;;8.20;2.15;;;16.70;99.90;;;;;;15471820;23;20083;-38
2023/07/04 09:13:32;;;;;;;9.93;2.38;;;16.50;99.90;;;;;;15410436;23;20335;-38
2023/07/04 09:19:43;;;;;;;9.65;2.75;;;16.80;99.90;;;;;;15468817;23;20031;-38
2023/07/04 09:25:45;;;;;;;9.25;2.47;;;17.40;99.90;;;;;;15501705;22;20052;-38
2023/07/04 09:31:58;;;;;;;9.45;2.78;;;17.20;99.90;;;;;;15506119;22;20031;-37
2023/07/04 09:38:02;;;;;;;7.75;2.60;;;17.10;99.90;;;;;;15495723;23;20024;-37
2023/07/04 09:44:19;;;;;;;11.50;3.00;;;17.10;99.90;;;;;;15491904;22;20546;-38
2023/07/04 09:50:31;;;;;;;7.95;2.40;;;17.80;99.90;;;;;;15495625;23;20458;-38
2023/07/04 09:56:33;;;;;;;13.63;3.47;;;17.80;99.90;;;;;;15502570;23;20020;-38
2023/07/04 10:02:35;;;;;;;15.05;3.42;;;18.20;99.90;;;;;;15499534;22;20389;-38
2023/07/04 10:08:55;;;;;;;9.13;2.42;;;18.30;99.90;;;;;;15500869;23;20024;-39
2023/07/04 10:14:59;;;;;;;9.93;2.42;;;18.80;99.90;;;;;;15494736;22;20059;-39
2023/07/04 10:21:06;;;;;;;7.68;2.22;;;19.60;99.90;;;;;;15468984;23;20054;-40
2023/07/04 10:27:12;;;;;;;7.55;2.15;;;19.90;99.90;;;;;;15504392;23;20024;-39
2023/07/04 10:33:24;;;;;;;12.30;2.83;;;19.70;99.90;;;;;;15491901;23;20027;-38
2023/07/04 10:39:27;;;;;;;14.17;2.70;;;19.20;99.90;;;;;;15471005;23;20024;-41
2023/07/04 10:45:32;;;;;;;8.93;2.77;;;19.50;99.90;;;;;;15498068;22;20032;-39
2023/07/04 10:51:40;;;;;;;9.57;3.00;;;20.20;99.90;;;;;;15492124;22;20052;-39
2023/07/04 10:57:47;;;;;;;11.90;3.05;;;19.90;99.90;;;;;;15473856;23;20020;-39
2023/07/04 11:03:59;;;;;;;7.53;2.42;;;19.60;99.90;;;;;;15494572;22;20035;-39
2023/07/04 11:10:04;;;;;;;8.68;2.50;;;19.50;99.90;;;;;;15496977;23;20020;-39
2023/07/04 11:16:08;;;;;;;8.10;2.60;;;18.90;99.90;;;;;;15497175;23;20026;-39
2023/07/04 11:22:14;;;;;;;6.22;2.20;;;18.60;99.90;;;;;;15470814;23;20042;-38
2023/07/04 11:28:25;;;;;;;15.35;3.10;;;18.50;99.90;;;;;;15498729;22;20020;-38
2023/07/04 11:34:53;;;;;;;9.40;2.20;;;18.40;99.90;;;;;;15462867;23;20370;-39
2023/07/04 11:41:00;;;;;;;10.82;3.08;;;18.50;99.90;;;;;;15494895;23;20021;-38
2023/07/04 11:47:12;;;;;;;6.05;2.03;;;18.70;99.90;;;;;;15498370;23;20020;-38
2023/07/04 11:53:23;;;;;;;10.07;2.13;;;18.70;99.90;;;;;;15495178;23;20332;-38
2023/07/04 11:59:36;;;;;;;9.70;2.10;;;19.00;99.90;;;;;;15490094;23;20024;-38
2023/07/04 12:05:37;;;;;;;11.52;2.53;;;18.50;99.90;;;;;;15499371;23;20039;-38
2023/07/04 12:11:46;;;;;;;8.90;2.35;;;18.40;99.90;;;;;;15461447;23;20035;-39
2023/07/04 12:17:49;;;;;;;7.75;2.50;;;18.40;99.90;;;;;;15473089;23;20027;-39
2023/07/04 12:23:52;;;;;;;;;;;18.70;99.90;;;;;;15501817;23;20024;-39
2023/07/04 12:29:54;;;;;;;13.18;2.30;;;19.00;99.90;;;;;;15472490;23;19925;-38
2023/07/04 12:36:06;;;;;;;11.43;2.33;;;18.70;99.90;;;;;;15469911;23;20020;-39
2023/07/04 12:42:13;;;;;;;12.55;2.50;;;18.90;99.90;;;;;;15494663;23;20027;-39
2023/07/04 12:48:15;;;;;;;8.93;2.30;;;18.80;99.90;;;;;;15496897;23;20027;-39
2023/07/04 12:54:20;;;;;;;8.32;2.30;;;18.70;99.90;;;;;;15506054;23;20386;-40
2023/07/04 13:00:32;;;;;;;9.68;2.40;;;18.50;99.90;;;;;;15498607;22;20026;-38
2023/07/04 13:06:34;;;;;;;9.75;2.75;;;18.70;99.90;;;;;;15494112;23;20024;-39
2023/07/04 13:12:36;;;;;;;7.90;2.30;;;18.80;99.90;;;;;;15468391;23;20032;-38
2023/07/04 13:18:41;;;;;;;7.65;2.03;;;18.60;99.90;;;;;;15496712;23;20020;-39
2023/07/04 13:24:43;;;;;;;7.00;2.42;;;18.40;99.90;;;;;;15495862;23;20405;-40
2023/07/04 13:30:49;;;;;;;7.10;2.00;;;18.60;99.90;;;;;;15445952;23;20024;-40
2023/07/04 13:37:04;;;;;;;6.13;1.80;;;19.00;99.90;;;;;;15484022;23;20024;-39
2023/07/04 13:43:06;;;;;;;8.20;2.00;;;18.80;99.90;;;;;;15480612;22;20024;-38
2023/07/04 13:49:11;;;;;;;9.02;2.00;;;18.80;99.90;;;;;;15477655;23;20027;-38
2023/07/04 13:55:12;;;;;;;5.68;1.75;;;19.10;99.90;;;;;;15482115;22;20016;-38
2023/07/04 14:01:16;;;;;;;4.65;1.60;;;19.80;99.90;;;;;;15486603;23;20024;-39
2023/07/04 14:07:21;;;;;;;7.43;2.08;;;19.60;99.90;;;;;;15515143;23;20028;-39
2023/07/04 14:13:23;;;;;;;6.90;1.80;;;19.40;99.90;;;;;;15480449;22;20366;-38
2023/07/04 14:19:25;;;;;;;7.38;2.10;;;19.30;99.90;;;;;;15458282;23;20024;-37
2023/07/04 14:25:33;;;;;;;7.93;1.90;;;19.10;99.90;;;;;;15481715;22;20028;-38
2023/07/04 14:31:36;;;;;;;10.88;1.85;;;19.00;99.90;;;;;;15498481;22;20024;-38
2023/07/04 14:37:38;;;;;;;6.63;2.28;;;18.90;99.90;;;;;;15499298;23;20032;-40
2023/07/04 14:43:42;;;;;;;6.72;2.03;;;19.00;99.90;;;;;;15470251;22;20512;-40
2023/07/04 14:49:44;;;;;;;12.88;2.40;;;19.10;99.90;;;;;;15497794;23;20017;-39
2023/07/04 14:55:56;;;;;;;10.00;2.35;;;19.20;99.90;;;;;;15493562;22;20028;-39
2023/07/04 15:01:59;;;;;;;7.75;2.00;;;19.20;99.90;;;;;;15502418;23;20032;-38
2023/07/04 15:08:01;;;;;;;7.13;2.13;;;19.70;99.90;;;;;;15493777;23;20031;-39
2023/07/04 15:14:03;;;;;;;9.70;2.28;;;20.20;99.90;;;;;;15498973;22;20090;-39
2023/07/04 15:20:06;;;;;;;8.77;1.70;;;19.90;99.90;;;;;;15499301;23;20051;-39
2023/07/04 15:26:08;;;;;;;8.98;2.42;;;19.50;99.90;;;;;;15434548;23;20028;-39
2023/07/04 15:32:13;;;;;;;7.85;2.10;;;19.50;99.90;;;;;;15466710;23;20016;-40
2023/07/04 15:38:17;;;;;;;11.75;2.15;;;19.40;99.90;;;;;;15481930;23;20039;-39
2023/07/04 15:44:19;;;;;;;5.57;1.90;;;19.40;99.90;;;;;;15453199;23;20377;-39
2023/07/04 15:50:21;;;;;;;6.00;1.90;;;19.10;99.90;;;;;;15456538;22;20028;-39
2023/07/04 15:56:23;;;;;;;6.03;2.05;;;19.10;99.90;;;;;;15477796;23;20027;-39
2023/07/04 16:02:26;;;;;;;7.88;2.22;;;19.10;99.90;;;;;;15442590;23;20035;-39
2023/07/04 16:08:30;;;;;;;8.35;2.13;;;19.30;99.90;;;;;;15452396;23;20032;-39
2023/07/04 16:14:32;;;;;;;8.02;2.10;;;19.40;99.90;;;;;;15481951;23;20020;-39
2023/07/04 16:20:34;;;;;;;7.30;2.35;;;19.60;99.90;;;;;;15456020;23;20057;-38
2023/07/04 16:26:36;;;;;;;8.85;2.20;;;19.70;99.90;;;;;;15482136;23;20489;-39
2023/07/04 16:32:39;;;;;;;8.93;2.42;;;19.70;99.90;;;;;;15496441;23;20020;-38
2023/07/04 16:38:41;;;;;;;9.20;2.22;;;19.70;99.90;;;;;;15468577;23;20056;-37
2023/07/04 16:44:43;;;;;;;9.30;2.38;;;19.80;99.90;;;;;;15493893;23;20078;-38
2023/07/04 16:50:47;;;;;;;6.00;1.90;;;19.60;99.90;;;;;;15495437;23;20023;-39
2023/07/04 16:56:49;;;;;;;11.57;2.55;;;20.00;99.90;;;;;;15497065;23;20684;-38
2023/07/04 17:02:52;;;;;;;6.97;2.17;;;20.20;99.90;;;;;;15497069;22;20027;-39
2023/07/04 17:08:55;;;;;;;5.97;2.40;;;20.30;99.90;;;;;;15472755;23;20028;-39
2023/07/04 17:14:57;;;;;;;6.40;2.40;;;20.10;99.90;;;;;;15466161;23;20024;-38
2023/07/04 17:20:59;;;;;;;8.18;2.50;;;20.10;99.90;;;;;;15471321;23;20031;-38
2023/07/04 17:27:02;;;;;;;7.97;2.42;;;20.20;99.90;;;;;;15484173;22;20024;-39
2023/07/04 17:33:04;;;;;;;10.07;2.88;;;20.30;99.90;;;;;;15464819;23;20024;-38
2023/07/04 17:39:06;;;;;;;6.03;2.13;;;20.20;99.90;;;;;;15451185;23;20407;-38
2023/07/04 17:45:09;;;;;;;10.32;2.65;;;20.00;99.90;;;;;;15488613;23;20035;-38
2023/07/04 17:51:13;;;;;;;7.82;2.40;;;19.80;99.90;;;;;;15457227;23;20024;-39
2023/07/04 17:57:15;;;;;;;6.57;2.13;;;20.00;99.90;;;;;;15487274;23;20139;-38
2023/07/04 18:03:34;;;;;;;6.10;2.27;;;19.80;99.90;;;;;;15492994;23;20043;-38
2023/07/04 18:09:36;;;;;;;9.23;2.50;;;19.50;99.90;;;;;;15481793;23;20020;-38
2023/07/04 18:15:38;;;;;;;5.35;2.15;;;19.40;99.90;;;;;;15481940;22;20498;-38
2023/07/04 18:21:42;;;;;;;7.70;2.10;;;19.20;99.90;;;;;;15478791;22;20028;-38
2023/07/04 18:27:45;;;;;;;8.30;2.50;;;18.60;99.90;;;;;;15492149;23;20099;-38
2023/07/04 18:33:47;;;;;;;5.50;2.05;;;18.50;99.90;;;;;;15498355;23;20032;-38
2023/07/04 18:39:49;;;;;;;10.80;2.95;;;18.40;99.90;;;;;;15503591;23;20374;-38
2023/07/04 18:45:51;;;;;;;7.47;2.67;;;18.40;99.90;;;;;;15500127;22;20062;-38
2023/07/04 18:51:55;;;;;;;9.55;2.75;;;18.40;99.90;;;;;;15501155;23;20031;-39
2023/07/04 18:57:57;;;;;;;8.40;2.72;;;18.20;99.90;;;;;;15500842;23;20027;-38
2023/07/04 19:04:02;;;;;;;8.02;2.40;;;18.10;99.90;;;;;;15500609;23;20500;-38
2023/07/04 19:10:06;;;;;;;7.88;2.65;;;18.00;99.90;;;;;;15500757;23;20023;-38
2023/07/04 19:16:09;;;;;;;7.32;2.45;;;17.80;99.90;;;;;;15434091;23;20023;-38
2023/07/04 19:22:11;;;;;;;6.17;2.43;;;17.70;99.90;;;;;;15461888;22;20382;-37
2023/07/04 19:28:15;;;;;;;9.30;2.92;;;17.60;99.90;;;;;;15455429;23;20102;-38
2023/07/04 19:34:18;;;;;;;7.50;2.40;;;17.50;99.90;;;;;;15477079;22;20398;-38
2023/07/04 19:40:20;;;;;;;9.30;3.10;;;17.40;99.90;;;;;;15449111;23;20374;-38
2023/07/04 19:46:22;;;;;;;8.63;2.55;;;17.30;99.90;;;;;;15478551;23;20035;-38
2023/07/04 19:52:24;;;;;;;10.40;3.05;;;17.30;99.90;;;;;;15448585;23;21047;-37
2023/07/04 19:58:26;;;;;;;9.57;2.50;;;17.20;99.90;;;;;;15486559;23;20020;-38
2023/07/04 20:04:29;;;;;;;9.57;2.75;;;17.10;99.90;;;;;;15477558;22;20035;-38
2023/07/04 20:10:31;;;;;;;7.63;2.35;;;17.00;99.90;;;;;;15456322;23;20066;-38
2023/07/04 20:16:34;;;;;;;13.88;3.10;;;17.00;99.90;;;;;;15477849;23;20044;-38
2023/07/04 20:22:36;;;;;;;8.93;2.40;;;16.90;99.90;;;;;;15453911;22;20016;-38
2023/07/04 20:28:41;;;;;;;9.63;2.40;;;17.00;99.90;;;;;;15489001;22;20024;-38
2023/07/04 20:34:43;;;;;;;10.00;2.85;;;16.90;99.90;;;;;;15493692;23;20024;-39
2023/07/04 20:40:45;;;;;;;9.45;2.38;;;16.90;99.90;;;;;;15492654;22;20343;-38
2023/07/04 20:46:47;;;;;;;9.45;2.53;;;17.00;99.90;;;;;;15492802;23;20020;-38
2023/07/04 20:52:49;;;;;;;7.95;2.38;;;16.90;99.90;;;;;;15494543;22;20343;-39
2023/07/04 20:58:51;;;;;;;8.38;2.63;;;16.80;99.90;;;;;;15496097;22;20047;-38
2023/07/04 21:04:57;;;;;;;8.68;2.65;;;16.80;99.90;;;;;;15489367;22;20086;-38
2023/07/04 21:11:03;;;;;;;8.30;2.58;;;16.80;99.90;;;;;;15495813;23;20474;-38
2023/07/04 21:17:07;;;;;;;8.07;2.72;;;16.70;99.90;;;;;;15471567;23;20074;-39
2023/07/04 21:23:10;;;;;;;9.35;2.53;;;16.70;99.90;;;;;;15430058;22;20024;-39
2023/07/04 21:29:17;;;;;;;9.35;2.85;;;16.90;99.90;;;;;;15475909;22;20024;-38
2023/07/04 21:35:19;;;;;;;7.10;2.63;;;16.80;99.90;;;;;;15472183;22;20085;-38
2023/07/04 21:41:21;;;;;;;11.68;2.60;;;16.80;99.90;;;;;;15480888;22;20052;-38
2023/07/04 21:47:23;;;;;;;9.55;3.08;;;16.70;99.90;;;;;;15474236;22;20024;-37
2023/07/04 21:53:26;;;;;;;8.75;3.00;;;16.70;99.90;;;;;;15484429;22;20110;-38
2023/07/04 21:59:28;;;;;;;12.52;2.95;;;16.70;99.90;;;;;;15478344;22;20332;-39
2023/07/04 22:05:30;;;;;;;9.55;2.88;;;16.60;99.90;;;;;;15470571;23;20027;-38
2023/07/04 22:11:33;;;;;;;7.63;3.08;;;16.50;99.90;;;;;;15447782;22;20024;-38
2023/07/04 22:17:35;;;;;;;11.13;3.40;;;16.40;99.90;;;;;;15481755;23;20703;-38
2023/07/04 22:23:38;;;;;;;9.32;3.10;;;16.30;99.90;;;;;;15478503;22;20028;-38
2023/07/04 22:29:40;;;;;;;10.68;3.38;;;16.20;99.90;;;;;;15464356;23;20024;-38
2023/07/04 22:35:42;;;;;;;13.43;3.60;;;16.10;99.90;;;;;;15494277;23;20024;-38
2023/07/04 22:41:45;;;;;;;7.88;3.42;;;16.00;99.90;;;;;;15496754;23;20024;-38
2023/07/04 22:47:47;;;;;;;7.35;3.60;;;15.90;99.90;;;;;;15497612;23;20031;-38
2023/07/04 22:53:50;;;;;;;9.30;3.65;;;15.90;99.90;;;;;;15497448;23;20362;-38
2023/07/04 22:59:53;;;;;;;9.95;3.92;;;15.90;99.90;;;;;;15498697;23;20465;-37
2023/07/04 23:05:56;;;;;;;11.85;3.22;;;15.90;99.90;;;;;;15470108;23;20024;-38
2023/07/04 23:19:23;;;;;;;9.90;3.70;;;15.80;99.90;;;;;;15493002;23;20048;-38
2023/07/04 23:25:26;;;;;;;9.23;3.55;;;15.80;99.90;;;;;;15494914;22;20035;-39
2023/07/04 23:31:28;;;;;;;10.65;3.33;;;15.80;99.90;;;;;;15452212;23;20020;-38
2023/07/04 23:37:30;;;;;;;8.57;3.38;;;15.80;99.90;;;;;;15451481;22;20408;-38
2023/07/04 23:43:32;;;;;;;10.13;3.40;;;15.90;99.90;;;;;;15467670;23;20055;-38
2023/07/04 23:49:35;;;;;;;7.45;3.25;;;15.90;99.90;;;;;;15462031;22;20394;-38
2023/07/04 23:55:37;;;;;;;8.52;3.53;;;16.00;99.90;;;;;;15467799;23;20042;-38
